Time;durP1;ratioP1;P1;durP2;ratioP2;P2;SDS_P1;SDS_P2;PMS_P1;PMS_P2;Temp;Humidity;BMP_temperature;BMP_pressure;BME280_temperature;BME280_humidity;BME280_pressure;Samples;Min_cycle;Max_cycle;Signal;HPM_P1;HPM_P2
2023/06/16 00:00:19;;;;;;;9.80;6.90;;;;;;;;;;5014365;28;20411;-74
2023/06/16 00:02:46;;;;;;;14.07;6.88;;;;;;;;;;5014035;28;20058;-74
2023/06/16 00:05:12;;;;;;;13.50;7.60;;;;;;;;;;4990929;28;20444;-73
2023/06/16 00:07:39;;;;;;;10.82;6.68;;;;;;;;;;5016755;28;20041;-73
2023/06/16 00:10:06;;;;;;;10.57;7.30;;;;;;;;;;5013229;28;20050;-73
2023/06/16 00:12:32;;;;;;;11.35;6.95;;;;;;;;;;5019385;28;20053;-74
2023/06/16 00:14:58;;;;;;;12.00;6.82;;;;;;;;;;5018014;28;20069;-74
2023/06/16 00:17:26;;;;;;;12.25;6.57;;;;;;;;;;5016630;28;20054;-74
2023/06/16 00:19:54;;;;;;;10.95;7.03;;;;;;;;;;5015302;28;20086;-74
2023/06/16 00:22:20;;;;;;;10.00;7.07;;;;;;;;;;5016305;28;20053;-73
2023/06/16 00:24:46;;;;;;;11.55;6.68;;;;;;;;;;5015568;28;20053;-74
2023/06/16 00:27:13;;;;;;;11.15;7.13;;;;;;;;;;5007329;28;20046;-74
2023/06/16 00:29:40;;;;;;;10.75;7.00;;;;;;;;;;5015960;28;20135;-74
2023/06/16 00:32:06;;;;;;;14.63;7.28;;;;;;;;;;5014063;28;20045;-74
2023/06/16 00:34:33;;;;;;;16.80;7.47;;;;;;;;;;5016903;28;20053;-74
2023/06/16 00:36:59;;;;;;;12.55;7.57;;;;;;;;;;4999003;28;20120;-74
2023/06/16 00:39:25;;;;;;;9.75;6.97;;;;;;;;;;5015147;28;20508;-74
2023/06/16 00:41:51;;;;;;;9.40;7.50;;;;;;;;;;5016708;28;20388;-74
2023/06/16 00:44:17;;;;;;;11.15;7.20;;;;;;;;;;5016501;28;20050;-73
2023/06/16 00:46:43;;;;;;;14.70;7.10;;;;;;;;;;5016150;28;20050;-73
2023/06/16 00:49:09;;;;;;;12.32;7.10;;;;;;;;;;5015091;28;20503;-74
2023/06/16 00:51:36;;;;;;;11.90;7.03;;;;;;;;;;4998648;28;20519;-74
2023/06/16 00:54:02;;;;;;;9.50;7.25;;;;;;;;;;5016265;28;20052;-74
2023/06/16 00:56:29;;;;;;;13.50;7.47;;;;;;;;;;5013858;28;20045;-74
2023/06/16 00:58:55;;;;;;;12.48;8.07;;;;;;;;;;5014872;28;20050;-74
2023/06/16 01:01:24;;;;;;;12.73;8.02;;;;;;;;;;5002679;28;20058;-73
2023/06/16 01:03:50;;;;;;;12.52;7.80;;;;;;;;;;4993560;28;20053;-73
2023/06/16 01:06:22;;;;;;;14.02;7.78;;;;;;;;;;5014769;28;20092;-73
2023/06/16 01:08:54;;;;;;;14.75;7.95;;;;;;;;;;5007398;28;20038;-73
2023/06/16 01:11:51;;;;;;;10.60;7.95;;;;;;;;;;4978919;28;20042;-73
2023/06/16 01:14:38;;;;;;;11.48;7.70;;;;;;;;;;4914245;29;20129;-73
2023/06/16 01:17:05;;;;;;;11.57;7.40;;;;;;;;;;4916685;29;20044;-73
2023/06/16 01:19:37;;;;;;;12.43;6.90;;;;;;;;;;4916479;29;20111;-73
2023/06/16 01:22:21;;;;;;;11.43;8.15;;;;;;;;;;4916690;29;20115;-73
2023/06/16 01:24:47;;;;;;;11.45;7.80;;;;;;;;;;4916029;29;20048;-74
2023/06/16 01:27:17;;;;;;;12.80;8.02;;;;;;;;;;4915594;29;20043;-74
2023/06/16 01:29:44;;;;;;;12.60;7.82;;;;;;;;;;4915029;29;20064;-73
2023/06/16 01:32:10;;;;;;;9.85;7.43;;;;;;;;;;4916743;29;20056;-74
2023/06/16 01:34:36;;;;;;;12.43;7.93;;;;;;;;;;4915744;29;20072;-73
2023/06/16 01:37:03;;;;;;;12.98;7.63;;;;;;;;;;4916366;29;20060;-73
2023/06/16 01:39:30;;;;;;;10.02;7.47;;;;;;;;;;4916605;29;20067;-73
2023/06/16 01:41:58;;;;;;;13.80;7.38;;;;;;;;;;4917967;29;20052;-74
2023/06/16 01:44:26;;;;;;;11.23;7.13;;;;;;;;;;4921207;29;20056;-74
2023/06/16 01:46:52;;;;;;;11.90;7.95;;;;;;;;;;4930292;29;20055;-75
2023/06/16 01:49:19;;;;;;;11.60;7.40;;;;;;;;;;4925539;29;20044;-74
2023/06/16 01:51:45;;;;;;;8.98;7.15;;;;;;;;;;5013603;28;20097;-73
2023/06/16 01:54:12;;;;;;;12.30;7.63;;;;;;;;;;5022156;28;20053;-73
2023/06/16 01:56:38;;;;;;;12.02;7.78;;;;;;;;;;5020763;28;20064;-73
2023/06/16 01:59:04;;;;;;;10.95;8.18;;;;;;;;;;5001604;28;20108;-73
2023/06/16 02:01:31;;;;;;;10.63;7.32;;;;;;;;;;5018789;28;20088;-73
2023/06/16 02:04:04;;;;;;;11.25;7.65;;;;;;;;;;5001177;28;20128;-74
2023/06/16 02:06:37;;;;;;;11.27;7.95;;;;;;;;;;5010703;28;20034;-74
2023/06/16 02:09:05;;;;;;;13.95;8.40;;;;;;;;;;5018074;28;20576;-73
2023/06/16 02:11:31;;;;;;;12.82;8.00;;;;;;;;;;5002533;28;20047;-74
2023/06/16 02:13:57;;;;;;;12.10;8.30;;;;;;;;;;5017014;28;20037;-73
2023/06/16 02:16:25;;;;;;;12.40;8.38;;;;;;;;;;4984162;28;20065;-74
2023/06/16 02:18:53;;;;;;;13.30;8.50;;;;;;;;;;5004270;28;20094;-74
2023/06/16 02:21:20;;;;;;;11.98;8.65;;;;;;;;;;5017917;28;20050;-74
2023/06/16 02:23:46;;;;;;;11.75;7.60;;;;;;;;;;5018043;28;20046;-74
2023/06/16 02:26:12;;;;;;;11.20;7.75;;;;;;;;;;5018001;28;20042;-73
2023/06/16 02:28:38;;;;;;;15.80;9.10;;;;;;;;;;5018141;28;20065;-73
2023/06/16 02:31:04;;;;;;;12.38;8.68;;;;;;;;;;5018723;28;20050;-73
2023/06/16 02:33:30;;;;;;;14.18;9.43;;;;;;;;;;5017817;28;20042;-74
2023/06/16 02:35:56;;;;;;;14.63;9.43;;;;;;;;;;5017936;28;20061;-73
2023/06/16 02:38:22;;;;;;;12.95;9.80;;;;;;;;;;5002007;28;20492;-73
2023/06/16 02:40:48;;;;;;;15.50;10.23;;;;;;;;;;5020050;28;20053;-73
2023/06/16 02:43:14;;;;;;;19.70;10.32;;;;;;;;;;5020874;28;20050;-73
2023/06/16 02:45:41;;;;;;;15.82;10.15;;;;;;;;;;5020044;28;20093;-73
2023/06/16 02:48:07;;;;;;;13.98;11.10;;;;;;;;;;5019276;28;20053;-73
2023/06/16 02:50:33;;;;;;;16.70;11.48;;;;;;;;;;5018990;28;20060;-73
2023/06/16 02:53:00;;;;;;;14.15;10.18;;;;;;;;;;5018734;28;20052;-73
2023/06/16 02:55:26;;;;;;;14.95;11.40;;;;;;;;;;5018385;28;20077;-73
2023/06/16 02:57:52;;;;;;;18.65;11.00;;;;;;;;;;5017611;28;20050;-73
2023/06/16 03:00:18;;;;;;;14.02;11.05;;;;;;;;;;5018267;28;20061;-74
2023/06/16 03:02:44;;;;;;;13.60;11.48;;;;;;;;;;5017021;28;20188;-74
2023/06/16 03:05:10;;;;;;;15.52;11.85;;;;;;;;;;5018595;28;20111;-74
2023/06/16 03:07:37;;;;;;;13.88;10.98;;;;;;;;;;5016326;28;20038;-74
2023/06/16 03:10:07;;;;;;;16.98;12.32;;;;;;;;;;5000532;28;20116;-74
2023/06/16 03:12:33;;;;;;;17.63;12.10;;;;;;;;;;5018339;28;20042;-74
2023/06/16 03:14:59;;;;;;;16.00;12.63;;;;;;;;;;5015345;28;20042;-74
2023/06/16 03:17:25;;;;;;;17.80;13.40;;;;;;;;;;5017555;28;20345;-74
2023/06/16 03:19:52;;;;;;;16.25;13.95;;;;;;;;;;5018505;28;20495;-74
2023/06/16 03:22:18;;;;;;;17.38;13.80;;;;;;;;;;5017203;28;20053;-74
2023/06/16 03:24:44;;;;;;;16.48;13.10;;;;;;;;;;4984670;28;20042;-74
2023/06/16 03:27:10;;;;;;;16.95;13.55;;;;;;;;;;5004171;28;20042;-74
2023/06/16 03:29:37;;;;;;;14.95;12.43;;;;;;;;;;5006533;28;20652;-73
2023/06/16 03:32:04;;;;;;;18.17;13.25;;;;;;;;;;4999491;28;20046;-74
2023/06/16 03:34:30;;;;;;;16.33;12.73;;;;;;;;;;4994810;28;20042;-74
2023/06/16 03:36:57;;;;;;;14.98;13.23;;;;;;;;;;5018374;28;20076;-75
2023/06/16 03:39:23;;;;;;;17.15;12.77;;;;;;;;;;5003917;28;20048;-75
2023/06/16 03:41:49;;;;;;;16.70;12.85;;;;;;;;;;5014855;28;20441;-75
2023/06/16 03:44:15;;;;;;;16.75;12.40;;;;;;;;;;5005701;28;20073;-74
2023/06/16 03:46:41;;;;;;;16.00;12.30;;;;;;;;;;5012919;28;20046;-74
2023/06/16 03:49:07;;;;;;;14.80;12.32;;;;;;;;;;5001356;28;20109;-75
2023/06/16 03:51:34;;;;;;;19.60;13.20;;;;;;;;;;5017081;28;20128;-74
2023/06/16 03:54:00;;;;;;;17.45;13.45;;;;;;;;;;5030411;28;20041;-74
2023/06/16 03:56:26;;;;;;;15.65;12.65;;;;;;;;;;5016696;28;20562;-74
2023/06/16 03:58:52;;;;;;;16.98;13.70;;;;;;;;;;4997662;28;20108;-74
2023/06/16 04:01:22;;;;;;;17.58;13.15;;;;;;;;;;5015869;28;20150;-74
2023/06/16 04:03:49;;;;;;;16.27;12.75;;;;;;;;;;5018000;28;20052;-74
2023/06/16 04:06:16;;;;;;;15.55;13.55;;;;;;;;;;4998728;28;20049;-74
2023/06/16 04:08:44;;;;;;;16.73;12.90;;;;;;;;;;5017238;28;20056;-73
2023/06/16 04:11:10;;;;;;;15.45;13.43;;;;;;;;;;5016971;28;20053;-73
2023/06/16 04:13:36;;;;;;;17.40;13.55;;;;;;;;;;5020395;28;20034;-73
2023/06/16 04:16:02;;;;;;;15.15;13.10;;;;;;;;;;4995244;28;20069;-73
2023/06/16 04:18:28;;;;;;;14.55;13.05;;;;;;;;;;5019331;28;20050;-74
2023/06/16 04:20:57;;;;;;;14.70;12.27;;;;;;;;;;5015059;28;20044;-74
2023/06/16 04:23:23;;;;;;;13.98;12.30;;;;;;;;;;5013957;28;20099;-73
2023/06/16 04:25:49;;;;;;;16.70;12.75;;;;;;;;;;5022530;28;20045;-74
2023/06/16 04:28:15;;;;;;;18.30;12.13;;;;;;;;;;5012815;28;20041;-74
2023/06/16 04:30:42;;;;;;;13.95;11.50;;;;;;;;;;5015275;28;20432;-74
2023/06/16 04:33:08;;;;;;;12.38;11.18;;;;;;;;;;4992298;28;20051;-73
2023/06/16 04:35:34;;;;;;;11.45;10.20;;;;;;;;;;4996712;28;20046;-73
2023/06/16 04:38:03;;;;;;;13.43;11.75;;;;;;;;;;4988518;28;20129;-72
2023/06/16 04:40:29;;;;;;;12.80;11.50;;;;;;;;;;5014451;28;20042;-74
2023/06/16 04:42:56;;;;;;;16.27;11.32;;;;;;;;;;5014802;28;20125;-73
2023/06/16 04:45:22;;;;;;;15.27;10.77;;;;;;;;;;5016406;28;20049;-73
2023/06/16 04:47:50;;;;;;;14.20;11.10;;;;;;;;;;5015865;28;20050;-74
2023/06/16 04:50:16;;;;;;;15.05;11.75;;;;;;;;;;4997838;28;20076;-74
2023/06/16 04:52:43;;;;;;;13.05;11.65;;;;;;;;;;5016884;28;20381;-73
2023/06/16 04:55:09;;;;;;;13.10;11.73;;;;;;;;;;5016642;28;20538;-73
2023/06/16 04:57:35;;;;;;;13.20;11.82;;;;;;;;;;5016828;28;20050;-74
2023/06/16 05:00:05;;;;;;;14.75;13.15;;;;;;;;;;5014588;28;20145;-73
2023/06/16 05:02:32;;;;;;;17.20;14.10;;;;;;;;;;5000811;28;20057;-72
2023/06/16 05:04:58;;;;;;;15.15;13.65;;;;;;;;;;4996910;28;20100;-74
2023/06/16 05:07:24;;;;;;;16.52;14.88;;;;;;;;;;4991317;28;20073;-75
2023/06/16 05:09:50;;;;;;;16.45;14.60;;;;;;;;;;5013014;28;20076;-74
2023/06/16 05:12:17;;;;;;;17.23;15.23;;;;;;;;;;5016910;28;20038;-74
2023/06/16 05:14:43;;;;;;;19.98;14.88;;;;;;;;;;5016764;28;20053;-74
2023/06/16 05:17:09;;;;;;;16.80;15.10;;;;;;;;;;5010818;28;20623;-73
2023/06/16 05:19:35;;;;;;;17.80;15.80;;;;;;;;;;5005327;28;20060;-74
2023/06/16 05:22:02;;;;;;;17.55;15.63;;;;;;;;;;5015860;28;20046;-74
2023/06/16 05:24:28;;;;;;;19.00;17.00;;;;;;;;;;5016057;28;20038;-73
2023/06/16 05:26:54;;;;;;;22.20;15.80;;;;;;;;;;4997032;28;20330;-74
2023/06/16 05:29:20;;;;;;;18.55;16.65;;;;;;;;;;5042686;23;20068;-73
2023/06/16 05:31:46;;;;;;;18.35;16.02;;;;;;;;;;5002120;28;20419;-73
2023/06/16 05:34:12;;;;;;;18.77;16.30;;;;;;;;;;5006874;28;20100;-73
2023/06/16 05:36:40;;;;;;;18.30;16.50;;;;;;;;;;5010584;28;20053;-73
2023/06/16 05:39:12;;;;;;;18.65;15.20;;;;;;;;;;5002798;28;20144;-73
2023/06/16 05:41:38;;;;;;;17.00;14.73;;;;;;;;;;5006851;28;20562;-73
2023/06/16 05:44:04;;;;;;;15.88;14.20;;;;;;;;;;5008546;28;20046;-74
2023/06/16 05:46:30;;;;;;;21.42;15.38;;;;;;;;;;5005386;28;20133;-73
2023/06/16 05:48:57;;;;;;;17.75;16.05;;;;;;;;;;5012912;28;20038;-72
2023/06/16 05:51:24;;;;;;;17.42;15.57;;;;;;;;;;5010021;28;20056;-72
2023/06/16 05:53:50;;;;;;;19.80;15.00;;;;;;;;;;5013092;28;20087;-72
2023/06/16 05:56:16;;;;;;;18.27;15.40;;;;;;;;;;5011089;28;20482;-74
2023/06/16 05:58:42;;;;;;;17.85;14.50;;;;;;;;;;5010290;28;20045;-72
2023/06/16 06:01:11;;;;;;;16.02;14.38;;;;;;;;;;5009125;28;20241;-73
2023/06/16 06:03:37;;;;;;;16.80;14.23;;;;;;;;;;5002409;28;20081;-72
2023/06/16 06:06:03;;;;;;;17.23;14.10;;;;;;;;;;5011812;28;20076;-73
2023/06/16 06:08:29;;;;;;;15.35;13.07;;;;;;;;;;5013251;28;20400;-73
2023/06/16 06:10:55;;;;;;;15.18;13.57;;;;;;;;;;5012994;28;20042;-73
2023/06/16 06:13:21;;;;;;;14.63;13.13;;;;;;;;;;5012153;28;20054;-73
2023/06/16 06:15:48;;;;;;;15.57;13.98;;;;;;;;;;5010113;28;20073;-73
2023/06/16 06:18:16;;;;;;;16.20;13.88;;;;;;;;;;5011153;28;20046;-74
2023/06/16 06:20:43;;;;;;;16.15;13.90;;;;;;;;;;5010176;28;20053;-73
2023/06/16 06:23:09;;;;;;;14.32;12.82;;;;;;;;;;5011372;28;20050;-73
2023/06/16 06:25:35;;;;;;;17.60;12.95;;;;;;;;;;5013632;28;20128;-74
2023/06/16 06:28:02;;;;;;;16.42;13.85;;;;;;;;;;5011377;28;20042;-73
2023/06/16 06:30:28;;;;;;;16.17;13.23;;;;;;;;;;5016676;28;20082;-73
2023/06/16 06:32:56;;;;;;;16.23;12.95;;;;;;;;;;5013215;28;20046;-73
2023/06/16 06:35:22;;;;;;;13.25;11.27;;;;;;;;;;5013428;28;20514;-73
2023/06/16 06:37:48;;;;;;;15.30;11.82;;;;;;;;;;5010715;28;20456;-73
2023/06/16 06:40:14;;;;;;;15.85;12.45;;;;;;;;;;5004185;28;20046;-72
2023/06/16 06:42:40;;;;;;;13.90;10.48;;;;;;;;;;5013772;28;20053;-73
2023/06/16 06:45:08;;;;;;;12.32;9.93;;;;;;;;;;5015787;28;20558;-73
2023/06/16 06:47:34;;;;;;;11.48;10.20;;;;;;;;;;5015891;28;20069;-74
2023/06/16 06:50:02;;;;;;;14.27;11.65;;;;;;;;;;5015326;28;20077;-73
2023/06/16 06:52:28;;;;;;;11.77;10.18;;;;;;;;;;5011300;28;20456;-73
2023/06/16 06:54:55;;;;;;;12.23;10.00;;;;;;;;;;5013888;28;20049;-74
2023/06/16 06:57:21;;;;;;;12.65;10.52;;;;;;;;;;5013491;28;20128;-74
2023/06/16 06:59:47;;;;;;;11.88;9.45;;;;;;;;;;5013568;28;20042;-73
2023/06/16 07:02:13;;;;;;;10.48;9.20;;;;;;;;;;5014579;28;20038;-73
2023/06/16 07:04:39;;;;;;;12.85;8.52;;;;;;;;;;5013903;28;20499;-72
2023/06/16 07:07:07;;;;;;;10.85;9.00;;;;;;;;;;5013753;28;20400;-73
2023/06/16 07:09:33;;;;;;;13.27;9.32;;;;;;;;;;5011803;28;20046;-73
2023/06/16 07:11:59;;;;;;;10.40;9.30;;;;;;;;;;5012817;28;20042;-73
2023/06/16 07:14:26;;;;;;;10.15;8.52;;;;;;;;;;5013472;28;20042;-72
2023/06/16 07:16:52;;;;;;;10.93;8.82;;;;;;;;;;5011357;28;20037;-72
2023/06/16 07:19:18;;;;;;;10.10;8.38;;;;;;;;;;5014751;28;20042;-72
2023/06/16 07:21:44;;;;;;;11.32;8.45;;;;;;;;;;5009536;28;20048;-72
2023/06/16 07:24:10;;;;;;;9.82;8.07;;;;;;;;;;5008630;28;20038;-73
2023/06/16 07:26:37;;;;;;;8.57;7.63;;;;;;;;;;5007836;28;20124;-73
2023/06/16 07:29:03;;;;;;;9.63;7.38;;;;;;;;;;5013364;28;20508;-72
2023/06/16 07:31:32;;;;;;;8.15;7.28;;;;;;;;;;5013525;28;20046;-73
2023/06/16 07:33:58;;;;;;;8.90;8.00;;;;;;;;;;5010463;28;20486;-72
2023/06/16 07:36:24;;;;;;;9.32;6.90;;;;;;;;;;5014905;28;20034;-73
2023/06/16 07:38:51;;;;;;;8.07;7.18;;;;;;;;;;5009542;28;20108;-72
2023/06/16 07:41:17;;;;;;;8.13;6.10;;;;;;;;;;5007728;28;20120;-73
2023/06/16 07:43:43;;;;;;;8.88;7.60;;;;;;;;;;5011463;28;20065;-73
2023/06/16 07:46:09;;;;;;;8.25;7.32;;;;;;;;;;5010814;28;20049;-74
2023/06/16 07:48:35;;;;;;;9.90;6.82;;;;;;;;;;5013647;28;20559;-73
2023/06/16 07:51:02;;;;;;;9.18;5.90;;;;;;;;;;5014784;28;20507;-74
2023/06/16 07:53:28;;;;;;;8.82;6.18;;;;;;;;;;5014954;28;20060;-74
2023/06/16 07:55:54;;;;;;;9.00;5.18;;;;;;;;;;5010847;28;20038;-74
2023/06/16 07:58:22;;;;;;;7.85;5.53;;;;;;;;;;5013973;28;20048;-73
2023/06/16 08:00:51;;;;;;;7.50;5.47;;;;;;;;;;5012330;28;20518;-74
2023/06/16 08:03:18;;;;;;;9.02;5.72;;;;;;;;;;5014068;28;20118;-73
2023/06/16 08:05:44;;;;;;;9.52;5.22;;;;;;;;;;5011980;28;20486;-74
2023/06/16 08:08:10;;;;;;;9.05;5.47;;;;;;;;;;5011938;28;20076;-72
2023/06/16 08:10:36;;;;;;;7.50;4.45;;;;;;;;;;5012936;28;20104;-73
2023/06/16 08:13:02;;;;;;;7.70;5.40;;;;;;;;;;5010838;28;20057;-73
2023/06/16 08:15:28;;;;;;;8.13;5.53;;;;;;;;;;5013402;28;20053;-73
2023/06/16 08:17:54;;;;;;;7.70;5.55;;;;;;;;;;5010053;28;20459;-73
2023/06/16 08:20:20;;;;;;;10.60;5.03;;;;;;;;;;5014230;28;20133;-73
2023/06/16 08:22:46;;;;;;;7.45;4.80;;;;;;;;;;5015508;28;20060;-73
2023/06/16 08:25:12;;;;;;;6.63;4.72;;;;;;;;;;5016135;28;20042;-73
2023/06/16 08:27:39;;;;;;;8.35;4.43;;;;;;;;;;5013341;28;20121;-73
2023/06/16 08:30:05;;;;;;;8.95;4.90;;;;;;;;;;5011770;28;20061;-72
2023/06/16 08:32:31;;;;;;;8.18;5.63;;;;;;;;;;5014222;28;20050;-73
2023/06/16 08:34:57;;;;;;;8.40;6.25;;;;;;;;;;5011303;28;20415;-73
2023/06/16 08:37:23;;;;;;;9.43;5.88;;;;;;;;;;5013010;28;20042;-72
2023/06/16 08:39:49;;;;;;;10.15;6.07;;;;;;;;;;5012075;28;20049;-73
2023/06/16 08:42:16;;;;;;;7.93;5.70;;;;;;;;;;5013258;28;20038;-74
2023/06/16 08:44:45;;;;;;;9.45;5.30;;;;;;;;;;5013116;28;20411;-74
2023/06/16 08:47:12;;;;;;;11.18;6.32;;;;;;;;;;5013127;28;20053;-72
2023/06/16 08:49:39;;;;;;;9.93;7.30;;;;;;;;;;5011206;28;20132;-73
2023/06/16 08:52:08;;;;;;;8.35;5.78;;;;;;;;;;5009313;28;20342;-73
2023/06/16 08:54:37;;;;;;;9.10;5.40;;;;;;;;;;5013922;28;20049;-73
2023/06/16 08:57:04;;;;;;;7.88;5.50;;;;;;;;;;5013708;28;20042;-72
2023/06/16 08:59:32;;;;;;;8.57;5.90;;;;;;;;;;5013304;28;20052;-72
2023/06/16 09:02:01;;;;;;;10.05;6.35;;;;;;;;;;5014956;28;20105;-72
2023/06/16 09:04:28;;;;;;;9.10;6.15;;;;;;;;;;4998570;28;20050;-72
2023/06/16 09:06:56;;;;;;;6.97;5.50;;;;;;;;;;5005471;28;20054;-73
2023/06/16 09:09:24;;;;;;;9.63;7.03;;;;;;;;;;5011152;28;20069;-72
2023/06/16 09:12:23;;;;;;;9.98;5.70;;;;;;;;;;5009650;28;20141;-73
2023/06/16 09:14:50;;;;;;;8.45;5.78;;;;;;;;;;4990482;28;20054;-73
2023/06/16 09:17:22;;;;;;;10.85;6.68;;;;;;;;;;5012222;28;20052;-73
2023/06/16 09:19:48;;;;;;;9.15;6.00;;;;;;;;;;5005610;28;20077;-73
2023/06/16 09:22:18;;;;;;;8.48;7.10;;;;;;;;;;5010629;28;20104;-73
2023/06/16 09:24:57;;;;;;;9.45;5.95;;;;;;;;;;5016490;28;20060;-75
2023/06/16 09:27:25;;;;;;;8.55;6.00;;;;;;;;;;5016191;28;20046;-73
2023/06/16 09:29:57;;;;;;;8.00;5.35;;;;;;;;;;5013863;28;20552;-74
2023/06/16 09:32:23;;;;;;;8.80;5.85;;;;;;;;;;5015595;28;20131;-73
2023/06/16 09:34:49;;;;;;;7.63;5.63;;;;;;;;;;5015854;28;20080;-73
2023/06/16 09:37:19;;;;;;;8.27;5.50;;;;;;;;;;4998515;28;20047;-74
2023/06/16 09:39:46;;;;;;;8.85;6.47;;;;;;;;;;5014102;28;20038;-74
2023/06/16 09:42:18;;;;;;;11.15;6.07;;;;;;;;;;5015162;28;20038;-74
2023/06/16 09:44:44;;;;;;;9.23;5.85;;;;;;;;;;5013971;28;20630;-75
2023/06/16 09:47:14;;;;;;;8.55;4.90;;;;;;;;;;5014128;28;20042;-73
2023/06/16 09:49:40;;;;;;;10.73;5.78;;;;;;;;;;5008344;28;20424;-73
2023/06/16 09:52:06;;;;;;;6.28;4.70;;;;;;;;;;5004183;28;20038;-74
2023/06/16 09:54:32;;;;;;;8.27;4.60;;;;;;;;;;5016498;28;20042;-74
2023/06/16 09:56:59;;;;;;;8.30;4.60;;;;;;;;;;5013316;28;20041;-73
2023/06/16 09:59:27;;;;;;;12.20;4.53;;;;;;;;;;5009159;28;20153;-74
2023/06/16 10:01:54;;;;;;;15.07;5.65;;;;;;;;;;5011980;28;20084;-72
2023/06/16 10:04:21;;;;;;;7.22;4.60;;;;;;;;;;5015457;28;20516;-74
2023/06/16 10:06:50;;;;;;;8.02;4.55;;;;;;;;;;5017791;28;20080;-74
2023/06/16 10:09:20;;;;;;;6.75;4.25;;;;;;;;;;5018409;28;20042;-74
2023/06/16 10:11:47;;;;;;;7.30;4.15;;;;;;;;;;5014715;28;20064;-73
2023/06/16 10:14:15;;;;;;;6.55;4.03;;;;;;;;;;5016055;28;20041;-73
2023/06/16 10:16:41;;;;;;;8.90;3.90;;;;;;;;;;5029811;28;20121;-75
2023/06/16 10:19:08;;;;;;;5.85;3.90;;;;;;;;;;5020014;28;20050;-73
2023/06/16 10:21:34;;;;;;;7.30;3.78;;;;;;;;;;5020440;28;20103;-74
2023/06/16 10:24:02;;;;;;;6.57;3.60;;;;;;;;;;5019800;28;20069;-73
2023/06/16 10:26:29;;;;;;;6.95;3.78;;;;;;;;;;5020402;28;20432;-73
2023/06/16 10:28:55;;;;;;;7.35;3.55;;;;;;;;;;5018540;28;20053;-73
2023/06/16 10:31:23;;;;;;;5.40;3.25;;;;;;;;;;5017520;28;20089;-74
2023/06/16 10:33:53;;;;;;;8.05;3.65;;;;;;;;;;5017821;28;20054;-74
2023/06/16 10:36:22;;;;;;;7.20;3.45;;;;;;;;;;5020896;28;20403;-75
2023/06/16 10:38:59;;;;;;;6.72;3.55;;;;;;;;;;5018827;28;20049;-74
2023/06/16 10:41:26;;;;;;;7.60;3.47;;;;;;;;;;5021076;28;20045;-73
2023/06/16 10:43:52;;;;;;;6.85;3.55;;;;;;;;;;5019295;28;20046;-73
2023/06/16 10:46:20;;;;;;;6.55;3.35;;;;;;;;;;5016971;28;20436;-73
2023/06/16 10:48:56;;;;;;;7.22;3.30;;;;;;;;;;5014307;28;20045;-74
2023/06/16 10:51:41;;;;;;;6.95;3.33;;;;;;;;;;5018424;28;20538;-73
2023/06/16 10:54:08;;;;;;;5.75;3.05;;;;;;;;;;5017969;28;20065;-74
2023/06/16 10:56:53;;;;;;;5.97;3.40;;;;;;;;;;5017243;28;20049;-74
2023/06/16 10:59:19;;;;;;;6.00;2.80;;;;;;;;;;5016281;28;20041;-74
2023/06/16 11:01:46;;;;;;;7.80;3.55;;;;;;;;;;5016805;28;20057;-73
2023/06/16 11:04:15;;;;;;;6.95;3.20;;;;;;;;;;5016955;28;20077;-74
2023/06/16 11:06:59;;;;;;;6.20;3.20;;;;;;;;;;5014714;28;20077;-73
2023/06/16 11:09:35;;;;;;;9.88;3.20;;;;;;;;;;5019912;28;20057;-74
2023/06/16 11:12:02;;;;;;;6.07;3.05;;;;;;;;;;5019175;28;20045;-74
2023/06/16 11:14:28;;;;;;;5.65;2.75;;;;;;;;;;5017457;28;20045;-73
2023/06/16 11:16:55;;;;;;;6.63;3.30;;;;;;;;;;5016909;28;20057;-74
2023/06/16 11:19:21;;;;;;;6.80;3.20;;;;;;;;;;5017768;28;20384;-74
2023/06/16 11:21:47;;;;;;;6.63;3.00;;;;;;;;;;5017041;28;20045;-74
2023/06/16 11:24:14;;;;;;;7.93;3.20;;;;;;;;;;5016532;28;20041;-73
2023/06/16 11:26:40;;;;;;;5.82;3.00;;;;;;;;;;5017856;28;20045;-75
2023/06/16 11:29:07;;;;;;;6.93;3.15;;;;;;;;;;5018212;28;20141;-74
2023/06/16 11:31:35;;;;;;;5.68;2.90;;;;;;;;;;5017490;28;20088;-74
2023/06/16 11:34:02;;;;;;;7.05;2.90;;;;;;;;;;5019258;28;20050;-74
2023/06/16 11:36:28;;;;;;;5.47;3.10;;;;;;;;;;5019369;28;20046;-74
2023/06/16 11:38:55;;;;;;;6.80;3.00;;;;;;;;;;5018908;28;20488;-72
2023/06/16 11:41:25;;;;;;;7.53;2.67;;;;;;;;;;5017884;28;20140;-74
2023/06/16 11:43:51;;;;;;;5.22;2.90;;;;;;;;;;5019703;28;20090;-73
2023/06/16 11:46:21;;;;;;;6.15;2.60;;;;;;;;;;5011955;28;20570;-74
2023/06/16 11:48:47;;;;;;;6.45;3.10;;;;;;;;;;5004068;28;20081;-74
2023/06/16 11:51:14;;;;;;;6.80;2.78;;;;;;;;;;5008855;28;20050;-74
2023/06/16 11:53:40;;;;;;;6.65;2.78;;;;;;;;;;5017324;28;20556;-75
2023/06/16 11:56:13;;;;;;;8.02;2.70;;;;;;;;;;5019469;28;20121;-74
2023/06/16 11:58:40;;;;;;;6.05;2.90;;;;;;;;;;5017764;28;20496;-74
2023/06/16 12:01:06;;;;;;;5.95;2.90;;;;;;;;;;5018467;28;20038;-74
2023/06/16 12:03:35;;;;;;;4.60;2.53;;;;;;;;;;5018289;28;20050;-74
2023/06/16 12:06:06;;;;;;;8.43;3.10;;;;;;;;;;5016624;28;20543;-74
2023/06/16 12:08:36;;;;;;;5.88;2.83;;;;;;;;;;5014626;28;20046;-74
2023/06/16 12:11:02;;;;;;;5.82;2.80;;;;;;;;;;5016180;28;20125;-73
2023/06/16 12:13:29;;;;;;;6.07;3.08;;;;;;;;;;5016791;28;20049;-73
2023/06/16 12:15:55;;;;;;;7.13;3.03;;;;;;;;;;5017490;28;20041;-74
2023/06/16 12:18:21;;;;;;;7.07;2.90;;;;;;;;;;5018253;28;20041;-74
2023/06/16 12:20:47;;;;;;;6.65;2.80;;;;;;;;;;5018316;28;20061;-74
2023/06/16 12:23:13;;;;;;;6.35;2.63;;;;;;;;;;5018660;28;20049;-75
2023/06/16 12:25:40;;;;;;;6.95;2.83;;;;;;;;;;5020691;28;20050;-74
2023/06/16 12:28:08;;;;;;;7.57;2.85;;;;;;;;;;5016320;28;20046;-74
2023/06/16 12:30:35;;;;;;;7.15;2.83;;;;;;;;;;5016695;28;20500;-76
2023/06/16 12:33:12;;;;;;;8.00;2.90;;;;;;;;;;5016876;28;20059;-74
2023/06/16 12:35:39;;;;;;;7.00;2.83;;;;;;;;;;5018477;28;20077;-74
2023/06/16 12:38:05;;;;;;;7.65;3.00;;;;;;;;;;5017912;28;20131;-74
2023/06/16 12:40:31;;;;;;;6.90;2.90;;;;;;;;;;5015457;28;20066;-75
2023/06/16 12:43:17;;;;;;;6.30;2.90;;;;;;;;;;5018927;28;20068;-74
2023/06/16 12:45:43;;;;;;;8.50;3.10;;;;;;;;;;5018045;28;20374;-74
2023/06/16 12:48:09;;;;;;;5.25;2.67;;;;;;;;;;5017470;28;20415;-74
2023/06/16 12:50:35;;;;;;;9.48;2.70;;;;;;;;;;5014192;28;20050;-74
2023/06/16 12:53:02;;;;;;;6.60;2.60;;;;;;;;;;5014928;28;20049;-73
2023/06/16 12:55:28;;;;;;;8.32;2.63;;;;;;;;;;5014744;28;20141;-74
2023/06/16 12:57:54;;;;;;;8.95;2.90;;;;;;;;;;5015487;28;20050;-75
2023/06/16 13:00:20;;;;;;;7.50;3.58;;;;;;;;;;5013911;28;21351;-73
2023/06/16 13:02:47;;;;;;;5.63;2.67;;;;;;;;;;5013493;28;20085;-74
2023/06/16 13:05:14;;;;;;;7.60;2.80;;;;;;;;;;5015836;28;20038;-74
2023/06/16 13:07:40;;;;;;;6.28;2.50;;;;;;;;;;5016090;28;20038;-74
2023/06/16 13:10:07;;;;;;;6.35;2.70;;;;;;;;;;5015347;28;20057;-75
2023/06/16 13:12:33;;;;;;;5.75;2.80;;;;;;;;;;5007564;28;20057;-75
2023/06/16 13:14:59;;;;;;;8.70;2.70;;;;;;;;;;4993344;28;20050;-75
2023/06/16 13:17:25;;;;;;;11.73;2.90;;;;;;;;;;5013046;28;20144;-75
2023/06/16 13:19:51;;;;;;;5.43;2.70;;;;;;;;;;5014382;28;20045;-75
2023/06/16 13:22:17;;;;;;;6.68;2.70;;;;;;;;;;5016600;28;20048;-75
2023/06/16 13:24:43;;;;;;;7.20;2.80;;;;;;;;;;5013655;28;20515;-74
2023/06/16 13:27:10;;;;;;;6.20;2.80;;;;;;;;;;5016726;28;20076;-74
2023/06/16 13:29:36;;;;;;;8.98;2.95;;;;;;;;;;5016406;28;20058;-74
2023/06/16 13:32:02;;;;;;;6.75;2.90;;;;;;;;;;5015731;28;20496;-74
2023/06/16 13:34:28;;;;;;;11.38;2.92;;;;;;;;;;5014769;28;20070;-74
2023/06/16 13:36:54;;;;;;;4.70;2.50;;;;;;;;;;5013581;28;20447;-74
2023/06/16 13:39:20;;;;;;;7.68;2.95;;;;;;;;;;5016597;28;20114;-73
2023/06/16 13:41:46;;;;;;;7.10;2.92;;;;;;;;;;5019155;28;20468;-74
2023/06/16 13:44:13;;;;;;;9.50;2.70;;;;;;;;;;5018746;28;20042;-74
2023/06/16 13:46:39;;;;;;;8.05;2.83;;;;;;;;;;5001802;28;20050;-75
2023/06/16 13:49:05;;;;;;;7.38;2.80;;;;;;;;;;5017994;28;20572;-74
2023/06/16 13:51:31;;;;;;;5.25;2.90;;;;;;;;;;5018713;28;20042;-74
2023/06/16 13:53:57;;;;;;;5.97;3.05;;;;;;;;;;5018518;28;20042;-74
2023/06/16 13:56:23;;;;;;;7.53;2.72;;;;;;;;;;5001811;28;20492;-75
2023/06/16 13:58:49;;;;;;;7.10;3.17;;;;;;;;;;5019855;28;20049;-75
2023/06/16 14:01:16;;;;;;;6.10;2.40;;;;;;;;;;5018221;28;20049;-74
2023/06/16 14:03:42;;;;;;;5.97;3.15;;;;;;;;;;5014648;28;20407;-74
2023/06/16 14:06:08;;;;;;;7.30;2.65;;;;;;;;;;5018845;28;20050;-74
2023/06/16 14:08:34;;;;;;;6.47;2.65;;;;;;;;;;5020124;28;20500;-74
2023/06/16 14:11:01;;;;;;;5.53;2.80;;;;;;;;;;5014682;28;20034;-74
2023/06/16 14:13:27;;;;;;;5.88;2.72;;;;;;;;;;5018432;28;20045;-74
2023/06/16 14:15:53;;;;;;;6.78;2.88;;;;;;;;;;5016436;28;20038;-74
2023/06/16 14:18:19;;;;;;;7.55;2.72;;;;;;;;;;5016766;28;20511;-74
2023/06/16 14:20:45;;;;;;;4.88;2.50;;;;;;;;;;5020258;28;20050;-75
2023/06/16 14:23:15;;;;;;;7.40;2.70;;;;;;;;;;5016118;28;20088;-74
2023/06/16 14:25:44;;;;;;;7.78;2.70;;;;;;;;;;5019423;28;20049;-75
2023/06/16 14:28:10;;;;;;;6.72;2.80;;;;;;;;;;5019052;28;20042;-74
2023/06/16 14:30:38;;;;;;;5.47;2.63;;;;;;;;;;5018300;28;20053;-74
2023/06/16 14:33:05;;;;;;;8.13;2.90;;;;;;;;;;5018453;28;20034;-73